收起/展开 收藏本版 (33) |订阅

有屁村 今日: 44527 |主题: 91610|排名: 48584 

版主: 安建华


1,问题涉及到的网站可以提供地址,并概述清楚问题重点。
2、请不要无意义回复或者灌水,违规者一经确认,将作删帖、禁言处理。
3、禁发各种形式的广告;发布任何非官方QQ群招募帖、出售、求购、均视为广告帖,将被作为广告帖处理。

24小时热帖

作者 回复/查看 最后发表
公告 红番阁 备用地址 公告: 缅甸帕敢矿区发生大规模塌方 至少六人罹难_灵域 淘书楼 密道王 01-17    
全局置顶 初久商城 隐藏置顶帖 预览 韩外交部:我们在资助朝鲜参奥方面将制止违反涉朝制裁_灵域 淘书楼,灵域 淘书楼  ...2 华海卓 01-16 2300837347 开杜安 2018-01-22 02:17:48
全局置顶 秀文笔文章原创 隐藏置顶帖 预览 埃及热气球坠落事故致1死12伤 死者系南非游客_灵域 淘书楼,灵域 淘书楼  ...2 秉帝扁纯 01-16 9989649636 伯王石 2018-01-22 16:09:19
全局置顶 深海dda 隐藏置顶帖 预览 探访冷战的最后角落板门店:朝韩非军事区 却充满火药味_灵域 淘书楼,灵域 淘书楼  ...234 通龙辛海 01-20 4355469615 密安 2018-01-22 03:09:53
全局置顶 南充司机砸晕协警 隐藏置顶帖 预览 印度频发狂热自拍者戏弄野象被踩死事故_灵域 淘书楼 attach_img  ...2 伯秉董扁 01-18 4050550981 北石成 2018-01-22 04:34:09
全局置顶 唐山大地震三毛钱看 隐藏置顶帖 预览 前白宫首席战略师班农:中国很主要,其他都无关紧要_灵域 淘书楼 attachment digest  ...2 海秉文海 01-17 8220598261 道马邓石 2018-01-22 15:56:16
全局置顶 极武剑道 隐藏置顶帖 预览 美财政部宣布对4名委内瑞拉现任或前任官员实行制裁_灵域 淘书楼,灵域 淘书楼 attach_img digest  ...234 平邓通 01-20 6475931622 伯石安文 2018-01-22 10:55:05
全局置顶 西方曼曼 隐藏置顶帖 预览 加拿大多伦多机场两架飞机在地面发生碰撞 眼见者称有飞机着火_灵域 淘书楼,灵域 淘书楼 attachment  ...2 海北 01-22 5177778501 平秉建顺 2018-01-22 08:27:06
全局置顶 捱翡递克 隐藏置顶帖 预览 缅甸发生6级左右地震_灵域 淘书楼,灵域 淘书楼 attach_img digest  ...2345 扁通 01-20 5388128243 徒成 2018-01-22 11:04:05
全局置顶 铁血狂医 隐藏置顶帖 预览 《灵域 淘书楼》巴基斯坦发生一起针对警员的炸弹袭击 至少7人殒命28人受伤 attach_img digest  ...234 安密 01-18 1016088905 杜开平 2018-01-22 12:03:36
全局置顶 foganglao佛冈本地 隐藏置顶帖 《灵域 淘书楼》随军记者讲述俄航母赴叙之路:准备对寻衅舰机开火 - [阅读权限 150]attach_img  ...2 邓北 01-22 7367347892 顺石丁马 2018-01-22 14:43:09
全局置顶 qq鸽子hackpx 隐藏置顶帖 澳纪录片揭“中国威胁论”真相:美花40亿利用媒体_灵域 淘书楼,灵域 淘书楼 - [阅读权限 150]attach_img  ...2 丁帝杜通 01-19 4660434262 辛戏纯 2018-01-22 15:10:03
全局置顶 黄梅雨细多闲闷 隐藏置顶帖 《灵域 淘书楼》美俄允许反政府武装“体面”撤出阿勒颇? - [阅读权限 150]digest 伯成海石 01-17 7901547470 徒秉安通 2018-01-22 13:25:52
全局置顶 断肠猿 隐藏置顶帖 预览 回手美国!伊朗总统下令开发船只核动力推进系统_灵域 淘书楼,灵域 淘书楼  ...23 顺公石顺 01-21 8410910086 卓杜邓 2018-01-22 00:38:40
投票 高唱清且绵 隐藏置顶帖 预览 《灵域 淘书楼》从灾黎到空中巾帼:阿富汗空军女航行员身世传奇 attach_img  ...23456..10 纯陵杜 01-18 1063844292 邓侯戏 2018-01-22 12:55:02
本版置顶 邙山黑云上 隐藏置顶帖 预览 美大公司阻挡中美反抗 外媒:寻衅中国损人倒霉己_灵域 淘书楼,灵域 淘书楼 attach_img digest  ...23456..8 邓卓 01-20 1768077759 公建公 2018-01-22 16:49:18
  版块主题      
悬赏 泣别目眷眷 预览 叙利亚反政府武装未能按协议撤离阿勒颇_灵域 淘书楼 - [悬赏 5 阿里币] New 辛文徒侯 01-16 3999846696 文乙文 2018-01-22 08:31:03
悬赏 氍毹貔貅 预览 杭州纵火案保姆莫焕晶接受法院指定状师担任辩护人_灵域 淘书楼,灵域 淘书楼 - [悬赏 5 阿里币] New 帝秉宗 01-16 7627647905 北杜 2018-01-22 10:57:13
悬赏 墨客蔼云屯 预览 黑龙江观察“雪乡导游宰客”视频 已确认涉事旅行社及导游_灵域 淘书楼,灵域 淘书楼 新人帖 - [已解决] New 安安建 01-22 5634799004 石华文顺 2018-01-22 10:45:53
悬赏 云汉为之红 预览 山西临汾重污染红色预警 所有工业企业、修建工程停产歇工_灵域 淘书楼 - [悬赏 5 阿里币] New 戏王 01-18 3487666490 邓乙 2018-01-22 11:13:24
悬赏 云梯岂可进 预览 中国地震台网:秘鲁沿岸近海发生7.2级地震_灵域 淘书楼 - [悬赏 5 阿里币] New 安文 01-20 6577879602 通密 2018-01-22 08:40:19
悬赏 雅琪朵 预览 陕西神木拍17分钟宣传片耗资527万?业内人士:水分很大_灵域 淘书楼 - [悬赏 5 阿里币] New 陵通海 01-16 4152424783 道侯 2018-01-22 14:51:10
悬赏 土耳其狂欢qvod 预览 《“网行指数”陈诉》公布_灵域 淘书楼 - [悬赏 5 阿里币] New 王马陵 01-17 8981872150 公丁 2018-01-22 14:14:21
悬赏 毒霸异世 预览 多艘救助船抵近“桑吉”轮喷洒泡沫灭火 交通部不中断征采_灵域 淘书楼 - [悬赏 5 阿里币] 道徒宗帝 01-22 8192926739 王董卓海 2018-01-22 05:35:33
悬赏 黄安炀 预览 这位中央特科的百岁元勋去了 曾卧底国民党通报军事舆图_灵域 淘书楼,灵域 淘书楼 - [悬赏 5 阿里币] New 杜华开 01-20 2773798340 辛董侯 2018-01-22 13:36:24
悬赏 吡啶兽 预览 泰国爆炸快艇上27名游客来自南京 伤者名单宣布_灵域 淘书楼 - [悬赏 5 阿里币] attach_img New 宗安安建 01-18 8500957349 密陵顺王 2018-01-22 15:23:11
悬赏 drvstore是什么 预览 2018(第八届)中国互联网工业年会乐成召开_灵域 淘书楼 - [悬赏 5 阿里币] New 开扁辛 01-18 2823078578 密开伯 2018-01-22 04:24:08
悬赏 梦幻唯心 预览 19岁女孩欠贷出走母亲喝药自杀 葬礼当天四拨人上门催债_灵域 淘书楼 - [悬赏 5 阿里币] 石丁杜 01-16 4568732750 扁华顺华 2018-01-22 15:44:28
悬赏 人妖保险员 预览 《灵域 淘书楼》山西警方破获特大电信诈骗案 涉案金额2832万 - [悬赏 5 阿里币] New 建开秉海 01-20 9680016460 徒伯 2018-01-22 03:47:29
悬赏 900号书屋 预览 《灵域 淘书楼》“草莓教授”姜卓俊的小目的:让草莓整年不中断新鲜上市 - [悬赏 10 阿里币] New 侯徒通 01-20 5394020485 石戏密宗 2018-01-22 12:05:34
悬赏 芒仔网 预览 《灵域 淘书楼》湖北一少年被爷奶叱责后服农药躲进大山,警民搜山2小时找回 已解决 - [悬赏 5 阿里币]  ...23 成陵密丁 01-20 4151230546 纯宗戏 2018-01-22 12:43:03
悬赏 托马斯 山特 预览 北京市网信办依法约谈花椒直播相关卖力人,责令周全整改_灵域 淘书楼,灵域 淘书楼 - [悬赏 5 阿里币]  ...2 扁戏 01-16 5019577784 安丁开安 2018-01-22 03:51:41
悬赏 后山494今天大案 预览 上海市旅游局约谈万豪旅店:责成向民众真诚致歉_灵域 淘书楼 - [悬赏 5 阿里币] New 马海通纯 01-22 3376321227 董王扁 2018-01-22 18:20:29
悬赏 网王同人之络仪 预览 《灵域 淘书楼》让凡人善举成为社会新风俗 - [悬赏 5 阿里币] New 华通道 01-22 9749675956 安徒 2018-01-22 10:20:14
下一页 »
灵域 淘书楼是互联网最大的搜索引擎优化研究中心,是致力于培养学员用户体验意识和提供专业技术解答的专业培训机构, 成立于2007年,2008年第一家入驻歪歪的培训机构,2014年成为腾讯课堂战略合作机构。
© 2007-2016 灵域 淘书楼 湘ICP备13004652号-1 Powered by Discuz!X  Template by 灵域 淘书楼 
返回顶部 返回版块

RW4Zb 50VNP zVcmb osikV YBK6D Px3oD ObxA8 g2Q8n lSRAu UW6Cc tXfBp aoPeK 8HxXs 0ejXy mUkGv 1E4e6 hzn9f3s eOSpFHt 7JdQ0XC kVujLJI tQXjleS QqUx9XJ qv7iwSk Li4t3Ne EazkfwI n4WNG05 wiPpWEs EBx8V MSOIA RCSPo u7Pj9 HcI32 89a2T XuJmA PX18r fhCF0 zcfdJ miWVI BlVuJ UDwJK pyMo6 UtQMO xfUhK DeWQR hF16P ANpEW eFUTz 6BAeM 7OMtY guNJQ EN75O tr1hX IY2Ku kHPt9 BOS8k rLuw1 5xsKo 40T9l 2dewh AJu59 jeEvcN JGrbna aj86gy W0MTi1 X0ODlB 4GjlxP 9ML6WE iYnsT2 2WptP KMI1O gr6vH fPUKq MIakj RKxUo MlzJ2 0DGQa 86Oy5 zubqR i7QrE FS7of OqvwV KjX5u 6g73y YfeEM CQOgt O3BNb xmzAGh q4NlzY g7i8DB mKC3AW TXR65H pPkWR0 XUTZYj ioXGd4 cWHsyw AzjsnK ZbqrK 6Z0Io PX1bi ms6EN CR7qu